createdAt,value
2017-08-26T00:00:53.935Z,100784.05
2017-08-26T00:03:21.389Z,100784.97
2017-08-26T00:05:48.560Z,100788.60
2017-08-26T00:08:15.935Z,100783.61
2017-08-26T00:10:43.139Z,100790.73
2017-08-26T00:13:11.577Z,100796.50
2017-08-26T00:15:38.749Z,100792.49
2017-08-26T00:18:06.444Z,100792.98
2017-08-26T00:20:33.617Z,100800.50
2017-08-26T00:23:03.026Z,100801.84
2017-08-26T00:25:30.372Z,100811.18
2017-08-26T00:27:57.801Z,100806.75
2017-08-26T00:30:24.992Z,100820.16
2017-08-26T00:32:52.407Z,100816.07
2017-08-26T00:35:19.929Z,100809.42
2017-08-26T00:37:47.271Z,100807.64
2017-08-26T00:40:14.785Z,100803.63
2017-08-26T00:42:42.032Z,100796.98
2017-08-26T00:45:09.245Z,100798.72
2017-08-26T00:47:36.434Z,100800.96
2017-08-26T00:50:03.624Z,100797.83
2017-08-26T00:52:31.152Z,100793.83
2017-08-26T00:54:58.600Z,100793.37
2017-08-26T00:57:26.059Z,100784.05
2017-08-26T00:59:53.244Z,100779.14
2017-08-26T01:02:20.420Z,100779.59
2017-08-26T01:04:47.586Z,100772.02
2017-08-26T01:07:20.557Z,100768.92
2017-08-26T01:09:48.077Z,100774.70
2017-08-26T01:12:15.245Z,100775.59
2017-08-26T01:14:42.556Z,100778.69
2017-08-26T01:17:09.729Z,100772.02
2017-08-26T01:19:36.915Z,100774.26
2017-08-26T01:22:04.632Z,100771.12
2017-08-26T01:24:31.820Z,100772.44
2017-08-26T01:26:59.340Z,100764.45
2017-08-26T01:29:26.517Z,100760.00
2017-08-26T01:31:54.738Z,100763.58
2017-08-26T01:34:22.220Z,100755.11
2017-08-26T01:36:49.871Z,100760.85
2017-08-26T01:39:17.444Z,100760.42
2017-08-26T01:41:44.904Z,100766.25
2017-08-26T01:44:12.613Z,100762.67
2017-08-26T01:46:39.809Z,100758.66
2017-08-26T01:49:07.344Z,100765.34
2017-08-26T01:51:34.852Z,100759.94
2017-08-26T01:54:02.036Z,100753.33
2017-08-26T01:56:29.328Z,100752.84
2017-08-26T01:58:56.854Z,100747.50
2017-08-26T02:01:24.344Z,100747.92
2017-08-26T02:03:51.533Z,100747.55
2017-08-26T02:06:18.704Z,100746.16
2017-08-26T02:08:46.075Z,100747.10
2017-08-26T02:11:13.571Z,100748.41
2017-08-26T02:13:41.233Z,100755.08
2017-08-26T02:16:08.753Z,100762.19
2017-08-26T02:18:36.246Z,100771.11
2017-08-26T02:21:03.789Z,100773.30
2017-08-26T02:23:31.056Z,100768.86
2017-08-26T02:25:58.507Z,100758.18
2017-08-26T02:28:26.041Z,100753.33
2017-08-26T02:30:53.252Z,100773.30
2017-08-26T02:33:20.571Z,100767.10
2017-08-26T02:35:48.032Z,100765.28
2017-08-26T02:38:15.488Z,100771.95
2017-08-26T02:40:42.937Z,100772.44
2017-08-26T02:43:10.121Z,100768.38
2017-08-26T02:45:37.290Z,100767.10
2017-08-26T02:48:04.698Z,100762.61
2017-08-26T02:50:31.869Z,100759.03
2017-08-26T02:52:59.423Z,100759.09
2017-08-26T02:55:26.608Z,100756.42
2017-08-26T02:57:53.774Z,100760.42
2017-08-26T03:00:20.941Z,100764.38
2017-08-26T03:02:48.109Z,100763.03
2017-08-26T03:05:15.292Z,100765.28
2017-08-26T03:07:42.898Z,100764.38
2017-08-26T03:10:10.069Z,100760.80
2017-08-26T03:12:37.749Z,100761.70
2017-08-26T03:15:05.198Z,100760.85
2017-08-26T03:17:32.385Z,100761.70
2017-08-26T03:19:59.553Z,100766.19
2017-08-26T03:22:26.721Z,100757.64
2017-08-26T03:24:53.889Z,100753.69
2017-08-26T03:27:21.071Z,100753.33
2017-08-26T03:29:48.405Z,100749.31
2017-08-26T03:32:15.593Z,100745.68
2017-08-26T03:34:43.326Z,100734.15
2017-08-26T03:37:10.502Z,100744.28
2017-08-26T03:39:37.684Z,100736.76
2017-08-26T03:42:04.873Z,100741.59
2017-08-26T03:44:32.222Z,100740.28
2017-08-26T03:46:59.685Z,100734.94
2017-08-26T03:49:27.147Z,100730.91
2017-08-26T03:51:54.314Z,100725.66
2017-08-26T03:54:21.747Z,100730.06
2017-08-26T03:56:48.913Z,100717.59
2017-08-26T03:59:16.353Z,100726.05
2017-08-26T04:01:44.012Z,100723.84
2017-08-26T04:04:11.585Z,100714.48
2017-08-26T04:06:38.761Z,100709.58
2017-08-26T04:09:06.291Z,100711.39
2017-08-26T04:11:33.530Z,100718.07
2017-08-26T04:14:01.106Z,100723.84
2017-08-26T04:16:28.281Z,100727.41
2017-08-26T04:18:56.022Z,100726.05
2017-08-26T04:21:23.192Z,100725.17
2017-08-26T04:23:50.720Z,100721.56
2017-08-26T04:26:17.908Z,100728.72
2017-08-26T04:28:45.255Z,100730.52
2017-08-26T04:31:12.750Z,100728.33
2017-08-26T04:33:39.937Z,100734.44
2017-08-26T04:36:07.105Z,100723.41
2017-08-26T04:38:34.273Z,100732.73
2017-08-26T04:41:01.593Z,100728.24
2017-08-26T04:43:28.777Z,100731.42
2017-08-26T04:45:56.195Z,100729.60
2017-08-26T04:48:23.658Z,100732.67
2017-08-26T04:50:51.106Z,100734.00
2017-08-26T04:53:18.277Z,100734.52
2017-08-26T04:55:45.747Z,100738.02
2017-08-26T04:58:13.490Z,100736.19
2017-08-26T05:00:41.135Z,100729.58
2017-08-26T05:03:08.714Z,100733.16
2017-08-26T05:05:35.900Z,100738.92
2017-08-26T05:08:03.311Z,100734.00
2017-08-26T05:10:30.490Z,100735.41
2017-08-26T05:12:57.999Z,100742.02
2017-08-26T05:15:25.491Z,100733.58
2017-08-26T05:17:52.959Z,100739.34
2017-08-26T05:20:20.179Z,100746.02
2017-08-26T05:22:47.369Z,100741.11
2017-08-26T05:25:14.541Z,100736.25
2017-08-26T05:27:41.724Z,100735.34
2017-08-26T05:30:09.222Z,100731.82
2017-08-26T05:32:36.420Z,100732.25
2017-08-26T05:35:03.803Z,100731.82
2017-08-26T05:37:31.270Z,100738.44
2017-08-26T05:39:58.441Z,100739.83
2017-08-26T05:42:25.652Z,100735.34
2017-08-26T05:44:52.836Z,100737.16
2017-08-26T05:47:20.013Z,100735.83
2017-08-26T05:49:47.210Z,100734.00
2017-08-26T05:52:14.456Z,100731.82
2017-08-26T05:54:41.625Z,100729.58
2017-08-26T05:57:09.080Z,100734.00
2017-08-26T05:59:36.607Z,100735.77
2017-08-26T06:02:03.992Z,100730.52
2017-08-26T06:04:31.176Z,100726.51
2017-08-26T06:06:58.605Z,100724.72
2017-08-26T06:09:25.777Z,100722.90
2017-08-26T06:11:52.963Z,100722.33
2017-08-26T06:14:20.133Z,100729.72
2017-08-26T06:16:47.302Z,100725.66
2017-08-26T06:19:14.469Z,100724.23
2017-08-26T06:21:42.021Z,100726.91
2017-08-26T06:24:09.270Z,100723.32
2017-08-26T06:26:36.446Z,100721.08
2017-08-26T06:29:03.872Z,100716.64
2017-08-26T06:31:31.514Z,100726.05
2017-08-26T06:33:59.101Z,100725.66
2017-08-26T06:36:26.558Z,100724.72
2017-08-26T06:38:54.066Z,100721.64
2017-08-26T06:41:21.475Z,100729.17
2017-08-26T06:43:49.234Z,100723.75
2017-08-26T06:46:16.404Z,100714.77
2017-08-26T06:48:43.845Z,100712.58
2017-08-26T06:51:11.293Z,100713.41
2017-08-26T06:53:38.751Z,100713.75
2017-08-26T06:56:05.922Z,100713.41
2017-08-26T06:58:33.108Z,100703.35
2017-08-26T07:01:00.292Z,100704.29
2017-08-26T07:03:27.656Z,100706.53
2017-08-26T07:05:55.121Z,100696.34
2017-08-26T07:08:22.319Z,100702.19
2017-08-26T07:10:49.724Z,100701.28
2017-08-26T07:13:17.182Z,100694.23
2017-08-26T07:15:44.954Z,100693.75
2017-08-26T07:18:12.598Z,100694.23
2017-08-26T07:20:39.783Z,100700.91
2017-08-26T07:23:07.156Z,100700.42
2017-08-26T07:25:34.677Z,100707.16
2017-08-26T07:28:01.860Z,100711.11
2017-08-26T07:30:29.136Z,100715.11
2017-08-26T07:32:56.531Z,100708.50
2017-08-26T07:35:23.715Z,100715.54
2017-08-26T07:37:50.886Z,100712.02
2017-08-26T07:40:18.284Z,100712.92
2017-08-26T07:42:45.454Z,100719.12
2017-08-26T07:45:12.967Z,100709.41
2017-08-26T07:47:40.358Z,100705.40
2017-08-26T07:50:08.003Z,100713.35
2017-08-26T07:52:35.581Z,100707.59
2017-08-26T07:55:02.759Z,100714.27
2017-08-26T07:57:30.180Z,100703.58
2017-08-26T07:59:57.363Z,100706.19
2017-08-26T08:02:24.533Z,100709.41
2017-08-26T08:04:51.701Z,100710.26
2017-08-26T08:07:19.273Z,100711.17
2017-08-26T08:09:46.446Z,100716.94
2017-08-26T08:12:13.886Z,100717.36
2017-08-26T08:14:41.159Z,100712.44
2017-08-26T08:17:08.797Z,100709.34
2017-08-26T08:19:36.065Z,100713.78
2017-08-26T08:22:03.307Z,100716.94
2017-08-26T08:24:30.495Z,100712.44
2017-08-26T08:26:57.662Z,100718.70
2017-08-26T08:29:24.845Z,100721.36
2017-08-26T08:31:52.032Z,100722.27
2017-08-26T08:34:19.215Z,100723.12
2017-08-26T08:36:46.611Z,100732.05
2017-08-26T08:39:13.783Z,100728.89
2017-08-26T08:41:41.030Z,100728.04
2017-08-26T08:44:08.205Z,100726.77
2017-08-26T08:46:35.833Z,100728.52
2017-08-26T08:49:03.410Z,100728.52
2017-08-26T08:51:30.596Z,100729.38
2017-08-26T08:53:58.186Z,100728.04
2017-08-26T08:56:25.782Z,100722.19
2017-08-26T08:58:53.546Z,100722.05
2017-08-26T09:01:20.997Z,100723.97
2017-08-26T09:03:48.658Z,100720.64
2017-08-26T09:06:15.909Z,100721.55
2017-08-26T09:08:43.093Z,100715.94
2017-08-26T09:11:10.584Z,100718.27
2017-08-26T09:13:37.753Z,100721.92
2017-08-26T09:16:05.194Z,100729.09
2017-08-26T09:18:32.579Z,100729.52
2017-08-26T09:20:59.771Z,100732.67
2017-08-26T09:23:27.197Z,100728.72
2017-08-26T09:25:54.716Z,100731.42
2017-08-26T09:28:22.092Z,100730.08
2017-08-26T09:30:49.269Z,100730.99
2017-08-26T09:33:16.820Z,100726.08
2017-08-26T09:35:44.166Z,100731.84
2017-08-26T09:38:11.346Z,100725.23
2017-08-26T09:40:38.776Z,100726.14
2017-08-26T09:43:06.222Z,100731.91
2017-08-26T09:45:33.413Z,100730.08
2017-08-26T09:48:00.603Z,100729.23
2017-08-26T09:50:27.773Z,100731.48
2017-08-26T09:52:55.140Z,100730.99
2017-08-26T09:55:22.606Z,100735.91
2017-08-26T09:57:50.058Z,100736.33
2017-08-26T10:00:17.588Z,100739.48
2017-08-26T10:02:44.757Z,100745.25
2017-08-26T10:05:12.197Z,100739.97
2017-08-26T10:07:39.381Z,100748.41
2017-08-26T10:10:06.907Z,100745.73
2017-08-26T10:12:34.498Z,100737.30
2017-08-26T10:15:02.149Z,100745.31
2017-08-26T10:17:29.405Z,100737.30
2017-08-26T10:19:56.864Z,100741.73
2017-08-26T10:22:24.310Z,100739.97
2017-08-26T10:24:51.482Z,100739.97
2017-08-26T10:27:18.833Z,100735.97
2017-08-26T10:29:46.147Z,100736.39
2017-08-26T10:32:13.645Z,100743.07
2017-08-26T10:34:40.988Z,100741.31
2017-08-26T10:37:08.250Z,100741.31
2017-08-26T10:39:35.460Z,100737.73
2017-08-26T10:42:02.935Z,100733.30
2017-08-26T10:44:30.335Z,100731.08
2017-08-26T10:46:57.544Z,100729.74
2017-08-26T10:49:24.811Z,100734.63
2017-08-26T10:51:52.584Z,100724.86
2017-08-26T10:54:20.032Z,100727.95
2017-08-26T10:56:47.489Z,100727.05
2017-08-26T10:59:14.944Z,100727.75
2017-08-26T11:01:42.406Z,100726.33
2017-08-26T11:04:09.860Z,100729.03
2017-08-26T11:06:37.439Z,100718.41
2017-08-26T11:09:04.778Z,100717.50
2017-08-26T11:11:32.238Z,100717.50
2017-08-26T11:13:59.421Z,100717.92
2017-08-26T11:16:26.839Z,100714.46
2017-08-26T11:18:54.020Z,100717.12
2017-08-26T11:21:21.207Z,100711.79
2017-08-26T11:23:48.601Z,100717.98
2017-08-26T11:26:15.769Z,100717.58
2017-08-26T11:28:43.209Z,100711.79
2017-08-26T11:31:10.382Z,100714.83
2017-08-26T11:33:37.630Z,100717.50
2017-08-26T11:36:05.149Z,100717.92
2017-08-26T11:38:32.421Z,100715.31
2017-08-26T11:40:59.933Z,100719.74
2017-08-26T11:43:27.338Z,100709.12
2017-08-26T11:45:54.526Z,100711.79
2017-08-26T11:48:22.014Z,100715.31
2017-08-26T11:50:49.389Z,100709.55
2017-08-26T11:53:16.573Z,100704.69
2017-08-26T11:55:43.750Z,100700.22
2017-08-26T11:58:10.922Z,100702.47
2017-08-26T12:00:38.501Z,100702.47
2017-08-26T12:03:05.715Z,100701.56
2017-08-26T12:05:32.899Z,100699.38
2017-08-26T12:08:00.087Z,100710.88
2017-08-26T12:10:27.474Z,100705.54
2017-08-26T12:12:54.724Z,100703.78
2017-08-26T12:15:22.129Z,100707.36
2017-08-26T12:17:49.313Z,100701.56
2017-08-26T12:20:16.918Z,100702.44
2017-08-26T12:22:44.095Z,100705.33
2017-08-26T12:25:11.348Z,100708.20
2017-08-26T12:27:39.108Z,100706.45
2017-08-26T12:30:06.558Z,100705.52
2017-08-26T12:32:34.349Z,100708.11
2017-08-26T12:35:02.475Z,100708.05
2017-08-26T12:37:30.564Z,100707.98
2017-08-26T12:39:57.778Z,100707.14
2017-08-26T12:42:24.970Z,100717.88
2017-08-26T12:44:52.237Z,100716.48
2017-08-26T12:47:19.442Z,100722.66
2017-08-26T12:49:52.403Z,100717.77
2017-08-26T12:52:21.858Z,100726.20
2017-08-26T12:54:51.333Z,100721.31
2017-08-26T12:57:20.882Z,100718.16
2017-08-26T12:59:48.774Z,100720.41
2017-08-26T13:02:15.956Z,100715.00
2017-08-26T13:04:43.569Z,100715.71
2017-08-26T13:07:10.741Z,100723.66
2017-08-26T13:09:38.370Z,100720.97
2017-08-26T13:12:05.974Z,100724.43
2017-08-26T13:14:33.172Z,100722.64
2017-08-26T13:17:00.346Z,100725.31
2017-08-26T13:19:27.767Z,100725.25
2017-08-26T13:21:54.981Z,100725.25
2017-08-26T13:24:22.157Z,100719.36
2017-08-26T13:26:49.325Z,100719.77
2017-08-26T13:29:16.913Z,100724.51
2017-08-26T13:31:44.125Z,100720.87
2017-08-26T13:34:11.505Z,100722.54
2017-08-26T13:36:38.687Z,100722.05
2017-08-26T13:39:06.442Z,100723.39
2017-08-26T13:41:34.405Z,100722.97
2017-08-26T13:44:01.574Z,100722.60
2017-08-26T13:46:28.745Z,100722.66
2017-08-26T13:48:55.949Z,100729.34
2017-08-26T13:51:23.121Z,100726.33
2017-08-26T13:53:50.635Z,100720.12
2017-08-26T13:56:17.845Z,100721.47
2017-08-26T13:58:45.222Z,100721.05
2017-08-26T14:01:12.388Z,100723.72
2017-08-26T14:03:39.581Z,100718.80
2017-08-26T14:06:07.127Z,100715.70
2017-08-26T14:08:34.694Z,100711.23
2017-08-26T14:11:01.934Z,100717.69
2017-08-26T14:13:29.204Z,100718.94
2017-08-26T14:15:56.390Z,100718.30
2017-08-26T14:18:23.562Z,100720.00
2017-08-26T14:20:52.056Z,100719.91
2017-08-26T14:23:19.746Z,100719.91
2017-08-26T14:25:46.929Z,100712.81
2017-08-26T14:28:14.131Z,100717.30
2017-08-26T14:30:41.496Z,100719.91
2017-08-26T14:33:08.665Z,100724.41
2017-08-26T14:35:35.837Z,100725.68
2017-08-26T14:38:03.268Z,100726.11
2017-08-26T14:40:30.823Z,100729.20
2017-08-26T14:42:59.813Z,100726.95
2017-08-26T14:45:27.160Z,100726.08
2017-08-26T14:47:54.802Z,100725.53
2017-08-26T14:50:21.992Z,100721.53
2017-08-26T14:52:49.162Z,100718.80
2017-08-26T14:55:16.335Z,100725.45
2017-08-26T14:57:43.746Z,100718.77
2017-08-26T15:00:11.489Z,100713.84
2017-08-26T15:02:38.747Z,100713.42
2017-08-26T15:05:05.932Z,100711.54
2017-08-26T15:07:33.116Z,100709.72
2017-08-26T15:10:00.497Z,100709.30
2017-08-26T15:12:27.666Z,100708.84
2017-08-26T15:14:55.431Z,100703.44
2017-08-26T15:17:22.878Z,100703.92
2017-08-26T15:19:50.049Z,100706.74
2017-08-26T15:22:17.220Z,100708.66
2017-08-26T15:24:44.952Z,100710.14
2017-08-26T15:27:12.406Z,100704.03
2017-08-26T15:29:39.576Z,100707.67
2017-08-26T15:32:07.242Z,100703.60
2017-08-26T15:34:34.780Z,100704.69
2017-08-26T15:37:02.028Z,100703.90
2017-08-26T15:39:29.573Z,100701.73
2017-08-26T15:41:56.836Z,100701.73
2017-08-26T15:44:24.009Z,100705.80
2017-08-26T15:46:51.195Z,100701.37
2017-08-26T15:49:18.380Z,100704.53
2017-08-26T15:51:45.746Z,100700.09
2017-08-26T15:54:12.921Z,100701.48
2017-08-26T15:56:40.357Z,100696.23
2017-08-26T15:59:07.547Z,100695.32
2017-08-26T16:01:35.154Z,100699.30
2017-08-26T16:04:02.425Z,100694.89
2017-08-26T16:06:30.190Z,100700.23
2017-08-26T16:08:57.636Z,100697.63
2017-08-26T16:11:24.825Z,100696.29
2017-08-26T16:13:52.442Z,100695.02
2017-08-26T16:16:19.632Z,100698.11
2017-08-26T16:18:46.902Z,100700.36
2017-08-26T16:21:14.496Z,100701.27
2017-08-26T16:23:41.773Z,100699.05
2017-08-26T16:26:09.223Z,100703.48
2017-08-26T16:28:36.799Z,100704.39
2017-08-26T16:31:04.315Z,100695.10
2017-08-26T16:33:31.596Z,100696.07
2017-08-26T16:35:59.128Z,100702.63
2017-08-26T16:38:26.721Z,100707.19
2017-08-26T16:40:53.969Z,100698.34
2017-08-26T16:43:21.137Z,100709.88
2017-08-26T16:45:48.315Z,100706.30
2017-08-26T16:48:15.725Z,100705.02
2017-08-26T16:50:42.926Z,100709.03
2017-08-26T16:53:10.112Z,100709.94
2017-08-26T16:55:37.699Z,100710.00
2017-08-26T16:58:04.869Z,100710.42
2017-08-26T17:00:32.278Z,100709.52
2017-08-26T17:02:59.620Z,100718.02
2017-08-26T17:05:27.002Z,100717.12
2017-08-26T17:07:54.187Z,100720.69
2017-08-26T17:10:21.825Z,100722.47
2017-08-26T17:12:49.068Z,100718.95
2017-08-26T17:15:16.610Z,100722.02
2017-08-26T17:17:43.790Z,100726.05
2017-08-26T17:20:11.197Z,100725.63
2017-08-26T17:22:38.368Z,100725.63
2017-08-26T17:25:05.538Z,100726.54
2017-08-26T17:27:32.889Z,100730.48
2017-08-26T17:30:00.349Z,100729.21
2017-08-26T17:32:27.908Z,100728.36
2017-08-26T17:34:55.260Z,100727.88
2017-08-26T17:37:22.716Z,100731.03
2017-08-26T17:39:50.176Z,100731.94
2017-08-26T17:42:17.360Z,100729.76
2017-08-26T17:44:44.993Z,100731.03
2017-08-26T17:47:12.714Z,100727.52
2017-08-26T17:49:40.005Z,100730.18
2017-08-26T17:52:07.192Z,100730.61
2017-08-26T17:54:34.691Z,100738.63
2017-08-26T17:57:01.853Z,100742.63
2017-08-26T17:59:29.018Z,100745.78
2017-08-26T18:01:56.569Z,100737.34
2017-08-26T18:04:23.844Z,100739.56
2017-08-26T18:06:51.021Z,100745.36
2017-08-26T18:09:18.747Z,100747.57
2017-08-26T18:11:45.913Z,100744.96
2017-08-26T18:14:13.457Z,100743.14
2017-08-26T18:16:41.000Z,100742.69
2017-08-26T18:19:08.577Z,100748.05
2017-08-26T18:21:36.011Z,100747.20
2017-08-26T18:24:03.796Z,100747.62
2017-08-26T18:26:31.033Z,100756.07
2017-08-26T18:28:58.197Z,100758.73
2017-08-26T18:31:25.385Z,100762.33
2017-08-26T18:33:52.698Z,100767.66
2017-08-26T18:36:20.216Z,100772.09
2017-08-26T18:38:47.612Z,100772.52
2017-08-26T18:41:15.075Z,100770.82
2017-08-26T18:43:42.241Z,100777.50
2017-08-26T18:46:09.676Z,100781.02
2017-08-26T18:48:37.138Z,100783.70
2017-08-26T18:51:04.646Z,100780.59
2017-08-26T18:53:31.850Z,100778.84
2017-08-26T18:55:59.196Z,100781.45
2017-08-26T18:58:26.366Z,100785.52
2017-08-26T19:00:53.542Z,100786.42
2017-08-26T19:03:20.718Z,100787.27
2017-08-26T19:05:47.881Z,100788.61
2017-08-26T19:08:15.054Z,100790.80
2017-08-26T19:10:42.585Z,100789.52
2017-08-26T19:13:10.176Z,100795.34
2017-08-26T19:15:37.350Z,100794.86
2017-08-26T19:18:04.776Z,100794.44
2017-08-26T19:20:31.988Z,100795.71
2017-08-26T19:22:59.501Z,100798.87
2017-08-26T19:25:26.666Z,100799.78
2017-08-26T19:27:54.088Z,100804.21
2017-08-26T19:30:21.258Z,100806.03
2017-08-26T19:32:48.672Z,100807.37
2017-08-26T19:35:16.056Z,100807.37
2017-08-26T19:37:43.506Z,100805.61
2017-08-26T19:40:10.692Z,100810.89
2017-08-26T19:42:38.193Z,100811.31
2017-08-26T19:45:05.760Z,100812.71
2017-08-26T19:47:33.032Z,100814.50
2017-08-26T19:50:00.518Z,100815.38
2017-08-26T19:52:27.950Z,100811.38
2017-08-26T19:54:55.118Z,100811.38
2017-08-26T19:57:22.647Z,100813.63
2017-08-26T19:59:49.812Z,100811.83
2017-08-26T20:02:17.164Z,100816.72
2017-08-26T20:04:44.676Z,100816.23
2017-08-26T20:07:12.219Z,100813.14
2017-08-26T20:09:39.541Z,100819.84
2017-08-26T20:12:07.051Z,100818.05
2017-08-26T20:14:34.248Z,100823.84
2017-08-26T20:17:01.595Z,100822.97
2017-08-26T20:19:29.057Z,100823.39
2017-08-26T20:21:56.240Z,100824.75
2017-08-26T20:24:23.664Z,100820.33
2017-08-26T20:26:51.185Z,100823.42
2017-08-26T20:29:18.576Z,100828.77
2017-08-26T20:31:46.218Z,100829.64
2017-08-26T20:34:13.807Z,100832.32
2017-08-26T20:36:41.015Z,100829.19
2017-08-26T20:39:08.409Z,100827.85
2017-08-26T20:41:35.912Z,100830.08
2017-08-26T20:44:03.436Z,100827.00
2017-08-26T20:46:30.678Z,100831.44
2017-08-26T20:48:57.927Z,100833.66
2017-08-26T20:51:25.102Z,100831.44
2017-08-26T20:53:52.537Z,100837.20
2017-08-26T20:56:19.776Z,100833.20
2017-08-26T20:58:47.039Z,100841.67
2017-08-26T21:01:14.231Z,100844.36
2017-08-26T21:03:41.421Z,100841.20
2017-08-26T21:06:08.901Z,100837.20
2017-08-26T21:08:36.411Z,100838.54
2017-08-26T21:13:45.103Z,100838.11
2017-08-26T21:16:12.612Z,100843.00
2017-08-26T21:18:39.785Z,100837.27
2017-08-26T21:21:06.972Z,100836.33
2017-08-26T21:23:34.148Z,100841.61
2017-08-26T21:26:01.557Z,100844.34
2017-08-26T21:28:29.100Z,100845.67
2017-08-26T21:30:56.371Z,100842.09
2017-08-26T21:33:23.758Z,100844.34
2017-08-26T21:35:51.052Z,100847.44
2017-08-26T21:38:18.620Z,100845.62
2017-08-26T21:40:45.789Z,100847.44
2017-08-26T21:43:13.060Z,100846.53
2017-08-26T21:45:40.701Z,100843.43
2017-08-26T21:48:07.962Z,100841.67
2017-08-26T21:50:35.130Z,100838.09
2017-08-26T21:53:02.882Z,100838.09
2017-08-26T21:55:30.050Z,100844.77
2017-08-26T21:57:57.226Z,100843.43
2017-08-26T22:00:24.402Z,100846.10
2017-08-26T22:02:51.784Z,100842.12
2017-08-26T22:05:19.440Z,100852.35
2017-08-26T22:07:46.614Z,100847.44
2017-08-26T22:10:13.792Z,100857.16
2017-08-26T22:12:40.962Z,100857.64
2017-08-26T22:15:08.180Z,100857.70
2017-08-26T22:17:35.356Z,100864.80
2017-08-26T22:20:02.530Z,100860.37
2017-08-26T22:22:29.905Z,100850.56
2017-08-26T22:24:57.088Z,100858.13
2017-08-26T22:27:24.291Z,100859.91
2017-08-26T22:29:51.461Z,100863.06
2017-08-26T22:32:19.736Z,100860.81
2017-08-26T22:34:46.908Z,100856.36
2017-08-26T22:37:14.393Z,100860.80
2017-08-26T22:39:41.558Z,100856.81
2017-08-26T22:42:08.733Z,100856.38
2017-08-26T22:44:37.164Z,100855.05
2017-08-26T22:47:05.732Z,100858.14
2017-08-26T22:49:35.208Z,100859.91
2017-08-26T22:52:05.079Z,100856.38
2017-08-26T22:54:36.428Z,100849.77
2017-08-26T22:57:04.016Z,100854.63
2017-08-26T22:59:31.204Z,100855.05
2017-08-26T23:01:58.365Z,100859.05
2017-08-26T23:04:25.892Z,100862.58
2017-08-26T23:06:53.417Z,100851.89
2017-08-26T23:09:21.436Z,100852.80
2017-08-26T23:11:50.802Z,100850.62
2017-08-26T23:14:20.165Z,100850.62
2017-08-26T23:16:49.489Z,100849.28
2017-08-26T23:19:19.308Z,100851.89
2017-08-26T23:21:46.488Z,100851.47
2017-08-26T23:24:16.148Z,100856.38
2017-08-26T23:26:43.845Z,100858.14
2017-08-26T23:29:11.065Z,100856.38
2017-08-26T23:31:38.225Z,100863.49
2017-08-26T23:34:05.567Z,100859.48
2017-08-26T23:36:32.733Z,100855.91
2017-08-26T23:38:59.926Z,100858.57
2017-08-26T23:41:27.274Z,100855.02
2017-08-26T23:43:54.739Z,100851.04
2017-08-26T23:46:22.189Z,100852.35
2017-08-26T23:48:49.645Z,100860.81
2017-08-26T23:51:16.830Z,100863.47
2017-08-26T23:53:44.365Z,100861.70
2017-08-26T23:56:11.549Z,100860.80
2017-08-26T23:58:38.861Z,100861.70
